Foxboro, Massachusetts
Current Conditions -  °F | °C
As of 11:53 AM on Friday 31 Oct 2014 (Local Time) from KOWD Reporting Station
Broken Clouds Broken Clouds  
Wind Chill: 53°   Ceiling: 5500
Heat Index: 53°   Visibility: 10mi
Dew Point: 39°   Wind: 7mph
Humidity: 59%   Direction: NA
Pressure: 30.01"   Gusts: NA
Location:  42.06°N, 71.25°W
Report Text: KOWD 311553Z VRB06KT 10SM SCT034 BKN055 12/04 A3001 RMK AO2 SLP162 T01170039
Loading
Personal Weather Stations






























Interactive Weather Map New forecast layout! Learn more

10-Day Weather Forecast

Advertisements
Track Severe Weather on mobile